Armstrong, Illinois
Current Conditions -  °F | °C
As of 4:55 PM on Tuesday 27 Jan 2015 (Local Time) from KTIP Reporting Station
Broken Clouds Broken Clouds  
Wind Chill: 24°   Ceiling: 1800
Heat Index: 31°   Visibility: 10mi
Dew Point: 25°   Wind: 7mph
Humidity: 78%   Direction: 360°N
Pressure: 30.21"   Gusts: NA
Location:  40.31°N, 87.88°W
Report Text: KTIP 272255Z AUTO 36006KT 10SM BKN018 M01/M04 A3021 RMK AO2 T10061040
Loading
Personal Weather Stations






























Interactive Weather Map New forecast layout! Learn more

10-Day Weather Forecast

Advertisements
Track Severe Weather on mobile